Time;durP1;ratioP1;P1;durP2;ratioP2;P2;SDS_P1;SDS_P2;PMS_P1;PMS_P2;Temp;Humidity;BMP_temperature;BMP_pressure;BME280_temperature;BME280_humidity;BME280_pressure;Samples;Min_cycle;Max_cycle;Signal;HPM_P1;HPM_P2
2021/09/19 00:00:26;;;;;;;8.93;4.32;;;15.20;99.90;;;;;;6284345;22;20075;-88
2021/09/19 00:02:52;;;;;;;4.95;3.60;;;15.20;99.90;;;;;;6257729;22;20011;-89
2021/09/19 00:05:18;;;;;;;3.70;3.30;;;15.20;99.90;;;;;;6281695;22;20148;-87
2021/09/19 00:07:44;;;;;;;4.35;3.60;;;15.20;99.90;;;;;;6285372;22;20046;-89
2021/09/19 00:10:12;;;;;;;5.57;3.60;;;15.20;99.90;;;;;;6257352;22;20177;-87
2021/09/19 00:12:39;;;;;;;5.10;3.45;;;15.20;99.90;;;;;;6309283;22;20042;-87
2021/09/19 00:15:09;;;;;;;6.75;3.00;;;15.20;99.90;;;;;;6284921;22;20011;-89
2021/09/19 00:17:35;;;;;;;7.47;3.30;;;15.20;99.90;;;;;;6336186;22;20014;-88
2021/09/19 00:20:01;;;;;;;5.30;2.80;;;15.20;99.90;;;;;;6333591;22;20448;-88
2021/09/19 00:22:27;;;;;;;3.72;2.95;;;15.20;99.90;;;;;;6286727;22;20010;-87
2021/09/19 00:24:53;;;;;;;5.55;2.97;;;15.20;99.90;;;;;;6284277;22;20105;-87
2021/09/19 00:27:18;;;;;;;3.70;2.88;;;15.20;99.90;;;;;;6256341;22;20010;-89
2021/09/19 00:29:44;;;;;;;7.13;3.15;;;15.20;99.90;;;;;;6283626;22;20012;-87
2021/09/19 00:32:10;;;;;;;3.10;2.80;;;15.20;99.90;;;;;;6282108;22;20010;-87
2021/09/19 00:34:36;;;;;;;3.25;2.47;;;15.20;99.90;;;;;;6259294;22;20041;-88
2021/09/19 00:37:01;;;;;;;4.25;2.80;;;15.20;99.90;;;;;;6258728;22;20037;-88
2021/09/19 00:39:27;;;;;;;4.25;2.75;;;15.10;99.90;;;;;;6284352;22;20388;-89
2021/09/19 00:41:53;;;;;;;8.68;2.65;;;15.10;99.90;;;;;;6281929;22;20021;-89
2021/09/19 00:44:27;;;;;;;3.05;2.75;;;15.10;99.90;;;;;;6283147;22;20140;-87
2021/09/19 00:46:54;;;;;;;9.52;3.45;;;15.10;99.90;;;;;;6306539;22;20270;-87
2021/09/19 00:49:20;;;;;;;5.13;3.00;;;15.10;99.90;;;;;;6280259;22;20093;-87
2021/09/19 00:51:45;;;;;;;4.45;3.08;;;15.10;99.90;;;;;;6260141;22;20038;-86
2021/09/19 00:54:12;;;;;;;4.20;2.47;;;15.10;99.90;;;;;;6285937;22;20071;-87
2021/09/19 00:56:40;;;;;;;3.50;3.20;;;15.10;99.90;;;;;;6312419;22;20014;-88
2021/09/19 00:59:08;;;;;;;9.60;3.17;;;15.10;99.90;;;;;;6285009;22;20010;-88
2021/09/19 01:01:34;;;;;;;5.13;2.58;;;15.10;99.90;;;;;;6308729;22;20015;-89
2021/09/19 01:04:03;;;;;;;3.58;2.65;;;15.10;99.90;;;;;;6259581;22;20015;-92
2021/09/19 01:06:30;;;;;;;6.40;2.85;;;15.10;99.90;;;;;;6309674;22;20018;-87
2021/09/19 01:08:59;;;;;;;8.10;3.20;;;15.10;99.90;;;;;;6310304;22;20401;-86
2021/09/19 01:11:25;;;;;;;3.95;2.78;;;15.10;99.90;;;;;;6334384;22;20014;-87
2021/09/19 01:13:50;;;;;;;5.90;2.78;;;15.10;99.90;;;;;;6261349;22;20041;-87
2021/09/19 01:16:19;;;;;;;5.30;2.70;;;15.10;99.90;;;;;;6309501;22;20010;-91
2021/09/19 01:18:47;;;;;;;3.67;2.90;;;15.00;99.90;;;;;;6307565;22;20328;-89
2021/09/19 01:21:14;;;;;;;6.38;3.25;;;15.10;99.90;;;;;;6310448;22;20085;-88
2021/09/19 01:23:58;;;;;;;4.03;3.08;;;15.00;99.90;;;;;;6284035;22;20075;-88
2021/09/19 01:26:25;;;;;;;4.35;3.10;;;15.10;99.90;;;;;;6311527;22;20082;-90
2021/09/19 01:28:51;;;;;;;4.03;2.88;;;15.00;99.90;;;;;;6309412;22;20049;-90
2021/09/19 01:31:19;;;;;;;9.20;3.65;;;15.00;99.90;;;;;;6281973;22;20014;-89
2021/09/19 01:33:45;;;;;;;5.88;3.80;;;15.00;99.90;;;;;;6311440;22;20600;-89
2021/09/19 01:36:12;;;;;;;4.22;3.65;;;15.00;99.90;;;;;;6284428;22;20025;-90
2021/09/19 01:38:39;;;;;;;4.80;4.05;;;15.00;99.90;;;;;;6312236;22;20017;-90
2021/09/19 01:41:04;;;;;;;6.25;3.92;;;15.00;99.90;;;;;;6288507;22;20020;-88
2021/09/19 01:43:31;;;;;;;8.40;4.65;;;15.00;99.90;;;;;;6288754;22;20050;-91
2021/09/19 01:46:05;;;;;;;6.82;4.20;;;15.00;99.90;;;;;;6313882;22;20014;-90
2021/09/19 01:48:35;;;;;;;7.68;4.10;;;15.00;99.90;;;;;;6320459;22;20038;-89
2021/09/19 01:51:03;;;;;;;5.13;3.88;;;15.00;99.90;;;;;;6327232;22;20038;-86
2021/09/19 01:53:29;;;;;;;6.68;4.20;;;15.00;99.90;;;;;;6287841;22;20026;-87
2021/09/19 01:55:55;;;;;;;6.72;4.47;;;15.00;99.90;;;;;;6313060;22;20364;-88
2021/09/19 01:58:21;;;;;;;6.93;4.40;;;15.00;99.90;;;;;;6261289;22;20018;-88
2021/09/19 02:00:47;;;;;;;5.22;4.43;;;15.00;99.90;;;;;;6283051;22;20105;-88
2021/09/19 02:03:13;;;;;;;7.57;4.60;;;15.00;99.90;;;;;;6259843;22;20076;-87
2021/09/19 02:05:39;;;;;;;5.88;4.65;;;15.00;99.90;;;;;;6284748;22;20010;-87
2021/09/19 02:08:05;;;;;;;6.90;5.07;;;15.00;99.90;;;;;;6283969;22;20010;-88
2021/09/19 02:10:31;;;;;;;5.90;4.57;;;15.00;99.90;;;;;;6309181;22;20025;-89
2021/09/19 02:12:56;;;;;;;8.52;5.20;;;15.00;99.90;;;;;;6257185;22;20016;-87
2021/09/19 02:15:22;;;;;;;11.70;5.47;;;15.00;99.90;;;;;;6258848;22;20354;-86
2021/09/19 02:17:48;;;;;;;7.93;5.25;;;15.00;99.90;;;;;;6286208;22;20093;-88
2021/09/19 02:20:15;;;;;;;6.85;5.22;;;15.00;99.90;;;;;;6259684;22;20141;-89
2021/09/19 02:22:42;;;;;;;6.28;5.00;;;15.00;99.90;;;;;;6310749;22;20021;-87
2021/09/19 02:25:10;;;;;;;5.88;5.10;;;15.00;99.90;;;;;;6312373;22;20014;-88
2021/09/19 02:27:36;;;;;;;8.52;5.32;;;15.00;99.90;;;;;;6287806;22;20659;-89
2021/09/19 02:30:07;;;;;;;7.25;5.18;;;15.00;99.90;;;;;;6307782;22;20342;-87
2021/09/19 02:32:33;;;;;;;6.45;5.55;;;15.00;99.90;;;;;;6285950;22;20568;-88
2021/09/19 02:34:59;;;;;;;9.15;5.80;;;14.90;99.90;;;;;;6262614;22;20042;-88
2021/09/19 02:37:25;;;;;;;7.15;5.65;;;15.00;99.90;;;;;;6286425;22;20086;-89
2021/09/19 02:39:52;;;;;;;6.63;5.38;;;14.90;99.90;;;;;;6284269;22;20066;-88
2021/09/19 02:42:17;;;;;;;8.30;6.18;;;14.90;99.90;;;;;;6281645;22;20085;-88
2021/09/19 02:44:43;;;;;;;7.63;5.90;;;14.90;99.90;;;;;;6311506;22;20044;-88
2021/09/19 02:47:09;;;;;;;8.63;5.72;;;14.90;99.90;;;;;;6287480;22;20014;-90
2021/09/19 02:49:35;;;;;;;10.02;6.47;;;14.90;99.90;;;;;;6309374;22;20457;-90
2021/09/19 02:52:00;;;;;;;11.93;6.47;;;14.90;99.90;;;;;;6286017;22;20533;-87
2021/09/19 02:54:27;;;;;;;7.60;5.80;;;14.90;99.90;;;;;;6261447;22;20010;-91
2021/09/19 02:56:53;;;;;;;10.75;6.18;;;14.90;99.90;;;;;;6285976;22;20010;-87
2021/09/19 02:59:19;;;;;;;12.13;5.95;;;14.90;99.90;;;;;;6285492;22;20022;-89
2021/09/19 03:01:45;;;;;;;8.45;5.65;;;14.90;99.90;;;;;;6283526;22;20024;-88
2021/09/19 03:04:12;;;;;;;9.32;6.05;;;14.90;99.90;;;;;;6285594;22;20045;-89
2021/09/19 03:06:38;;;;;;;10.98;6.70;;;14.90;99.90;;;;;;6286293;22;20067;-89
2021/09/19 03:09:04;;;;;;;12.05;6.00;;;14.90;99.90;;;;;;6285278;22;20373;-89
2021/09/19 03:11:30;;;;;;;10.82;5.90;;;14.90;99.90;;;;;;6257207;22;20014;-89
2021/09/19 03:13:56;;;;;;;9.18;6.38;;;14.90;99.90;;;;;;6309221;22;20010;-86
2021/09/19 03:16:22;;;;;;;8.93;6.70;;;14.90;99.90;;;;;;6283996;22;20017;-90
2021/09/19 03:18:48;;;;;;;8.43;6.72;;;14.80;99.90;;;;;;6258636;22;20025;-87
2021/09/19 03:21:14;;;;;;;8.93;6.50;;;14.80;99.90;;;;;;6283853;22;20010;-87
2021/09/19 03:23:40;;;;;;;11.25;6.68;;;14.80;99.90;;;;;;6284685;22;20093;-87
2021/09/19 03:26:06;;;;;;;9.63;6.03;;;14.80;99.90;;;;;;6308879;22;20045;-88
2021/09/19 03:28:33;;;;;;;10.38;6.35;;;14.80;99.90;;;;;;6283819;22;20018;-88
2021/09/19 03:30:59;;;;;;;7.22;6.45;;;14.80;99.90;;;;;;6308678;22;20011;-87
2021/09/19 03:33:25;;;;;;;10.27;6.78;;;14.80;99.90;;;;;;6311306;22;20443;-89
2021/09/19 03:35:51;;;;;;;9.23;6.38;;;14.80;99.90;;;;;;6284175;22;20010;-86
2021/09/19 03:38:17;;;;;;;11.63;6.25;;;14.80;99.90;;;;;;6334844;22;20394;-89
2021/09/19 03:40:43;;;;;;;8.52;5.70;;;14.70;99.90;;;;;;6258116;22;20101;-86
2021/09/19 03:43:09;;;;;;;7.95;6.47;;;14.70;99.90;;;;;;6284182;22;20014;-88
2021/09/19 03:45:35;;;;;;;7.78;6.05;;;14.70;99.90;;;;;;6284842;22;20613;-87
2021/09/19 03:48:06;;;;;;;11.68;6.45;;;14.70;99.90;;;;;;6258728;22;20025;-88
2021/09/19 03:50:35;;;;;;;9.05;5.97;;;14.70;99.90;;;;;;6283091;22;20010;-88
2021/09/19 03:53:02;;;;;;;9.57;6.05;;;14.70;99.90;;;;;;6311095;22;20681;-87
2021/09/19 03:55:28;;;;;;;8.85;5.60;;;14.60;99.90;;;;;;6284773;22;20037;-89
2021/09/19 03:57:58;;;;;;;9.98;5.70;;;14.60;99.90;;;;;;6286629;22;20022;-91
2021/09/19 04:00:24;;;;;;;9.52;5.55;;;14.60;99.90;;;;;;6283726;22;20041;-87
2021/09/19 04:03:00;;;;;;;9.10;5.32;;;14.60;99.90;;;;;;6309970;22;20018;-86
2021/09/19 04:05:25;;;;;;;10.38;5.43;;;14.50;99.90;;;;;;6313821;22;20457;-87
2021/09/19 04:07:51;;;;;;;10.60;5.45;;;14.40;99.90;;;;;;6334946;22;20010;-86
2021/09/19 04:10:17;;;;;;;10.68;5.38;;;14.40;99.90;;;;;;6322313;22;20658;-87
2021/09/19 04:12:43;;;;;;;15.38;5.38;;;14.40;99.90;;;;;;6286449;22;20010;-90
2021/09/19 04:15:10;;;;;;;10.27;5.47;;;14.30;99.90;;;;;;6259041;22;20010;-85
2021/09/19 04:17:36;;;;;;;10.00;5.22;;;14.30;99.90;;;;;;6284070;22;20066;-90
2021/09/19 04:20:03;;;;;;;13.50;5.68;;;14.20;99.90;;;;;;6283298;22;20010;-87
2021/09/19 04:22:32;;;;;;;7.63;5.53;;;14.20;99.90;;;;;;6311543;22;20006;-87
2021/09/19 04:24:59;;;;;;;12.13;5.40;;;14.20;99.90;;;;;;6283773;22;20042;-87
2021/09/19 04:27:26;;;;;;;12.23;5.28;;;14.20;99.90;;;;;;6286185;22;20017;-89
2021/09/19 04:29:52;;;;;;;7.85;5.20;;;14.10;99.90;;;;;;6308940;22;20063;-89
2021/09/19 04:32:18;;;;;;;11.32;6.00;;;14.10;99.90;;;;;;6285432;22;20010;-88
2021/09/19 04:34:47;;;;;;;8.65;5.80;;;14.10;99.90;;;;;;6284975;22;20010;-92
2021/09/19 04:37:14;;;;;;;8.77;5.65;;;14.00;99.90;;;;;;6285289;22;20014;-87
2021/09/19 04:39:44;;;;;;;10.93;5.60;;;14.00;99.90;;;;;;6308638;22;20010;-89
2021/09/19 04:42:10;;;;;;;11.23;5.57;;;14.00;99.90;;;;;;6282034;22;20021;-86
2021/09/19 04:44:36;;;;;;;10.63;5.35;;;13.90;99.90;;;;;;6336658;22;20025;-88
2021/09/19 04:47:02;;;;;;;7.78;5.43;;;13.80;99.90;;;;;;6309814;22;20016;-89
2021/09/19 04:49:28;;;;;;;7.60;5.45;;;13.80;99.90;;;;;;6257408;22;20395;-88
2021/09/19 04:51:54;;;;;;;10.88;5.90;;;13.80;99.90;;;;;;6308542;22;20006;-87
2021/09/19 04:54:20;;;;;;;12.93;5.65;;;13.70;99.90;;;;;;6257142;22;20010;-88
2021/09/19 04:56:52;;;;;;;12.13;6.00;;;13.60;99.90;;;;;;6284365;22;20069;-89
2021/09/19 04:59:21;;;;;;;12.50;5.60;;;13.60;99.90;;;;;;6283916;22;20083;-90
2021/09/19 05:01:47;;;;;;;12.00;5.28;;;13.50;99.90;;;;;;6257562;22;20014;-86
2021/09/19 05:04:13;;;;;;;14.15;5.90;;;13.50;99.90;;;;;;6257743;22;20111;-87
2021/09/19 05:06:38;;;;;;;14.98;5.60;;;13.40;99.90;;;;;;6283212;22;20011;-88
2021/09/19 05:09:10;;;;;;;9.77;6.10;;;13.40;99.90;;;;;;6284691;22;20014;-87
2021/09/19 05:11:36;;;;;;;12.43;5.57;;;13.40;99.90;;;;;;6307359;22;20017;-87
2021/09/19 05:14:03;;;;;;;9.95;5.40;;;13.30;99.90;;;;;;6312366;22;20081;-87
2021/09/19 05:16:29;;;;;;;9.48;6.13;;;13.30;99.90;;;;;;6286910;22;20017;-86
2021/09/19 05:18:58;;;;;;;11.30;5.75;;;13.20;99.90;;;;;;6308895;22;20018;-84
2021/09/19 05:21:27;;;;;;;8.13;5.90;;;13.20;99.90;;;;;;6283713;22;20007;-87
2021/09/19 05:23:56;;;;;;;10.43;5.70;;;13.20;99.90;;;;;;6310908;22;20010;-90
2021/09/19 05:26:22;;;;;;;10.52;6.53;;;13.10;99.90;;;;;;6309856;22;20050;-88
2021/09/19 05:28:49;;;;;;;10.75;7.05;;;13.10;99.90;;;;;;6281545;22;20564;-86
2021/09/19 05:31:15;;;;;;;11.48;6.30;;;13.10;99.90;;;;;;6282896;22;20046;-88
2021/09/19 05:33:46;;;;;;;8.50;6.15;;;13.00;99.90;;;;;;6257311;22;20014;-89
2021/09/19 05:36:12;;;;;;;11.13;6.78;;;13.00;99.90;;;;;;6307326;22;20010;-86
2021/09/19 05:38:38;;;;;;;12.10;6.50;;;12.90;99.90;;;;;;6283779;22;20036;-87
2021/09/19 05:41:04;;;;;;;12.18;6.82;;;13.00;99.90;;;;;;6309800;22;20405;-88
2021/09/19 05:43:30;;;;;;;13.20;6.85;;;13.00;99.90;;;;;;6309532;22;20059;-89
2021/09/19 05:45:56;;;;;;;9.50;6.43;;;12.90;99.90;;;;;;6309652;22;20047;-88
2021/09/19 05:48:21;;;;;;;9.77;6.68;;;12.90;99.90;;;;;;6281450;22;20079;-86
2021/09/19 05:50:57;;;;;;;;;;;;;;;;;;;;;
2021/09/19 05:53:24;;;;;;;12.27;7.32;;;12.90;99.90;;;;;;6310987;22;20006;-87
2021/09/19 05:55:50;;;;;;;12.68;7.53;;;12.90;99.90;;;;;;6255882;22;20014;-88
2021/09/19 05:58:15;;;;;;;12.70;7.80;;;12.90;99.90;;;;;;6308557;22;20014;-89
2021/09/19 06:00:41;;;;;;;14.82;7.90;;;12.90;99.90;;;;;;6281971;22;20014;-87
2021/09/19 06:03:10;;;;;;;12.27;7.43;;;12.90;99.90;;;;;;6310264;22;20343;-89
2021/09/19 06:44:37;;;;;;;14.98;8.93;;;13.20;99.90;;;;;;6365170;22;20393;-87
2021/09/19 06:47:03;;;;;;;12.80;9.05;;;13.20;99.90;;;;;;6307718;22;20503;-86
2021/09/19 06:49:29;;;;;;;13.48;9.45;;;13.30;99.90;;;;;;6308905;22;20014;-88
2021/09/19 06:51:55;;;;;;;12.57;9.27;;;13.30;99.90;;;;;;6308639;22;20017;-87
2021/09/19 06:54:27;;;;;;;17.52;9.70;;;13.30;99.90;;;;;;6259807;22;20014;-88
2021/09/19 06:56:53;;;;;;;22.48;11.27;;;13.30;99.90;;;;;;6281615;22;20045;-85
2021/09/19 06:59:22;;;;;;;14.48;9.23;;;13.30;99.90;;;;;;6309806;22;20052;-87
2021/09/19 07:01:50;;;;;;;16.45;10.18;;;13.30;99.90;;;;;;6310120;22;20344;-88
2021/09/19 07:04:23;;;;;;;15.52;9.45;;;13.40;99.90;;;;;;6307771;22;20024;-86
2021/09/19 07:06:57;;;;;;;14.82;9.02;;;13.40;99.90;;;;;;6310063;22;20014;-85
2021/09/19 07:09:23;;;;;;;13.20;9.48;;;13.50;99.90;;;;;;6307812;22;20112;-87
2021/09/19 07:11:49;;;;;;;13.75;9.82;;;13.50;99.90;;;;;;6258523;22;20014;-87
2021/09/19 07:14:23;;;;;;;15.38;9.63;;;13.50;99.90;;;;;;6257549;22;20018;-87
2021/09/19 07:16:52;;;;;;;15.30;9.38;;;13.60;99.90;;;;;;6307369;22;20014;-86
2021/09/19 07:19:21;;;;;;;14.75;9.77;;;13.70;99.90;;;;;;6309029;22;20022;-87
2021/09/19 07:21:56;;;;;;;16.58;9.77;;;13.70;99.90;;;;;;6307027;22;20018;-86
2021/09/19 07:24:22;;;;;;;12.95;9.73;;;13.70;99.90;;;;;;6310707;22;20018;-87
2021/09/19 07:26:56;;;;;;;15.93;9.52;;;13.80;99.90;;;;;;6284926;22;20063;-89
2021/09/19 07:29:22;;;;;;;16.73;9.52;;;13.80;99.90;;;;;;6258893;22;20048;-87
2021/09/19 07:31:53;;;;;;;16.25;8.73;;;13.80;99.90;;;;;;6280450;22;20014;-86
2021/09/19 07:34:20;;;;;;;15.77;9.35;;;13.90;99.90;;;;;;6282933;22;20010;-88
2021/09/19 07:36:47;;;;;;;13.50;8.82;;;13.90;99.90;;;;;;6281213;22;20014;-86
2021/09/19 07:39:14;;;;;;;15.65;9.05;;;13.90;99.90;;;;;;6306655;22;20040;-86
2021/09/19 07:41:40;;;;;;;11.68;8.77;;;13.90;99.90;;;;;;6281804;22;20025;-86
2021/09/19 07:44:06;;;;;;;16.77;9.55;;;14.00;99.90;;;;;;6281423;22;20014;-86
2021/09/19 07:46:42;;;;;;;15.50;8.50;;;14.00;99.90;;;;;;6307354;22;20423;-83
2021/09/19 07:49:08;;;;;;;12.05;8.27;;;14.10;99.90;;;;;;6256185;22;20018;-85
2021/09/19 07:51:34;;;;;;;13.50;8.43;;;14.20;99.90;;;;;;6307875;22;20029;-86
2021/09/19 07:54:06;;;;;;;12.68;8.90;;;14.30;99.90;;;;;;6284358;22;20210;-85
2021/09/19 07:56:32;;;;;;;13.63;8.63;;;14.40;99.90;;;;;;6307826;22;20043;-87
2021/09/19 07:58:58;;;;;;;12.80;8.45;;;14.50;99.90;;;;;;6256116;22;20015;-86
2021/09/19 08:01:30;;;;;;;14.25;8.20;;;14.50;99.90;;;;;;6281779;22;20014;-88
2021/09/19 08:03:56;;;;;;;12.15;8.90;;;14.60;99.90;;;;;;6256890;22;20010;-85
2021/09/19 08:06:22;;;;;;;14.70;9.23;;;14.70;99.90;;;;;;6282544;22;20021;-87
2021/09/19 08:08:50;;;;;;;12.43;7.97;;;14.80;99.90;;;;;;6281602;22;20050;-86
2021/09/19 08:11:32;;;;;;;11.77;7.90;;;14.90;99.90;;;;;;6310262;22;20520;-88
2021/09/19 08:14:07;;;;;;;;;;;15.00;99.90;;;;;;6310081;22;20013;-86
2021/09/19 08:16:38;;;;;;;14.65;8.75;;;15.00;99.30;;;;;;6309628;22;19942;-86
2021/09/19 08:19:09;;;;;;;12.10;8.40;;;14.90;99.90;;;;;;6307700;22;20096;-86
2021/09/19 08:21:37;;;;;;;11.82;8.40;;;14.90;99.90;;;;;;6305604;22;20014;-85
2021/09/19 08:24:05;;;;;;;15.35;9.45;;;15.00;99.90;;;;;;6282809;22;20447;-85
2021/09/19 08:26:34;;;;;;;16.33;9.32;;;15.00;99.80;;;;;;6308183;22;20011;-87
2021/09/19 08:29:03;;;;;;;13.23;9.07;;;14.90;99.60;;;;;;6309383;22;20029;-85
2021/09/19 08:31:33;;;;;;;15.65;8.85;;;14.90;99.70;;;;;;6283044;22;20283;-87
2021/09/19 08:33:58;;;;;;;13.60;9.05;;;15.00;99.80;;;;;;6309085;22;20114;-86
2021/09/19 08:36:25;;;;;;;14.15;9.18;;;15.00;99.90;;;;;;6308380;22;20045;-86
2021/09/19 08:38:51;;;;;;;13.45;9.15;;;15.00;99.70;;;;;;6281241;22;20458;-88
2021/09/19 08:41:18;;;;;;;13.70;9.48;;;15.10;99.80;;;;;;6309606;22;20071;-87
2021/09/19 08:43:48;;;;;;;15.38;9.35;;;15.10;99.60;;;;;;6325309;22;20015;-90
2021/09/19 08:46:18;;;;;;;14.73;9.55;;;15.20;99.60;;;;;;6304704;22;20029;-85
2021/09/19 08:48:48;;;;;;;18.38;9.93;;;15.20;99.50;;;;;;6307199;22;20084;-87
2021/09/19 08:51:14;;;;;;;11.75;9.40;;;15.20;99.50;;;;;;6334236;22;20006;-88
2021/09/19 08:53:41;;;;;;;13.73;9.23;;;15.30;99.30;;;;;;6307355;22;20562;-85
2021/09/19 08:56:10;;;;;;;15.68;9.93;;;15.30;99.30;;;;;;6307085;22;20011;-86
2021/09/19 08:58:37;;;;;;;12.93;10.25;;;15.40;99.30;;;;;;6307564;22;20046;-84
2021/09/19 09:01:04;;;;;;;13.43;9.23;;;15.40;99.20;;;;;;6281919;22;20015;-87
2021/09/19 09:03:33;;;;;;;12.75;9.05;;;15.50;99.20;;;;;;6307542;22;20025;-86
2021/09/19 09:06:10;;;;;;;13.27;9.38;;;15.50;99.20;;;;;;6306363;22;20101;-87
2021/09/19 09:08:40;;;;;;;12.02;8.48;;;15.50;98.90;;;;;;6308199;22;20064;-88
2021/09/19 09:11:28;;;;;;;12.32;8.02;;;15.60;98.80;;;;;;6283020;22;20082;-87
2021/09/19 09:13:54;;;;;;;12.43;8.63;;;15.60;98.50;;;;;;6307625;22;20089;-88
2021/09/19 09:16:27;;;;;;;14.10;8.80;;;15.60;98.60;;;;;;6281372;22;20099;-87
2021/09/19 09:18:59;;;;;;;13.70;8.57;;;15.70;98.50;;;;;;6332667;22;20161;-89
2021/09/19 09:21:35;;;;;;;;;;;15.70;98.40;;;;;;6282992;22;20024;-90
2021/09/19 09:24:03;;;;;;;11.75;7.70;;;15.80;97.70;;;;;;6303202;22;20002;-89
2021/09/19 09:26:43;;;;;;;11.60;8.35;;;15.80;98.40;;;;;;6311066;22;20092;-87
2021/09/19 09:29:23;;;;;;;10.52;7.97;;;15.90;98.10;;;;;;6310779;22;20018;-90
2021/09/19 09:32:16;;;;;;;10.43;7.60;;;16.00;97.80;;;;;;6309771;22;20085;-88
2021/09/19 09:34:46;;;;;;;9.68;7.50;;;16.00;97.80;;;;;;6336315;22;20013;-88
2021/09/19 09:37:12;;;;;;;11.02;7.63;;;16.00;97.70;;;;;;6284910;22;20010;-87
2021/09/19 09:39:44;;;;;;;11.40;7.80;;;16.10;97.70;;;;;;6309243;22;20097;-88
2021/09/19 09:42:28;;;;;;;10.20;7.25;;;16.10;96.90;;;;;;6309424;22;20049;-87
2021/09/19 09:45:04;;;;;;;10.88;7.07;;;16.10;96.60;;;;;;6310014;22;20014;-91
2021/09/19 09:47:52;;;;;;;11.45;6.93;;;16.20;96.70;;;;;;6310764;22;20045;-87
2021/09/19 09:50:39;;;;;;;9.60;6.75;;;16.20;96.50;;;;;;6310612;22;20015;-89
2021/09/19 09:53:30;;;;;;;11.43;6.50;;;16.20;96.50;;;;;;6284760;22;20328;-89
2021/09/19 09:56:00;;;;;;;12.73;7.00;;;16.30;96.50;;;;;;6309646;22;20071;-89
2021/09/19 09:58:34;;;;;;;11.55;7.00;;;16.30;96.50;;;;;;6308361;22;20052;-90
2021/09/19 10:01:12;;;;;;;8.77;6.65;;;16.30;96.40;;;;;;6284682;22;20014;-90
2021/09/19 10:03:40;;;;;;;9.90;6.88;;;16.40;96.30;;;;;;6311311;22;20345;-89
2021/09/19 10:06:11;;;;;;;9.27;7.38;;;16.40;96.40;;;;;;6287506;22;20018;-87
2021/09/19 10:08:41;;;;;;;10.43;6.97;;;16.50;96.20;;;;;;6311778;22;20014;-90
2021/09/19 10:11:09;;;;;;;13.38;7.22;;;16.50;96.20;;;;;;6311020;22;20018;-87
2021/09/19 10:13:46;;;;;;;11.93;7.20;;;16.50;96.40;;;;;;6310944;22;20093;-89
2021/09/19 10:17:10;;;;;;;8.73;6.35;;;16.70;96.70;;;;;;6339487;22;20071;-89
2021/09/19 10:19:59;;;;;;;9.48;6.78;;;16.80;96.80;;;;;;6302038;22;20075;-89
2021/09/19 10:22:53;;;;;;;10.43;6.25;;;16.80;96.20;;;;;;6312282;22;20334;-87
2021/09/19 10:29:21;;;;;;;9.70;6.45;;;16.90;95.00;;;;;;6194846;22;20028;-88
2021/09/19 10:35:29;;;;;;;10.52;6.60;;;17.00;95.30;;;;;;6302876;22;20021;-89
2021/09/19 10:38:00;;;;;;;11.60;6.72;;;17.00;94.00;;;;;;6309958;22;20026;-88
2021/09/19 10:40:35;;;;;;;9.67;6.03;;;16.90;94.60;;;;;;6312296;22;20011;-86
2021/09/19 10:43:24;;;;;;;11.88;6.28;;;16.90;94.70;;;;;;6286304;22;20051;-90
2021/09/19 10:46:02;;;;;;;8.32;6.05;;;17.00;94.70;;;;;;6316275;22;20014;-89
2021/09/19 10:48:32;;;;;;;9.20;6.35;;;17.00;94.90;;;;;;6287755;22;20318;-89
2021/09/19 10:51:08;;;;;;;8.77;6.85;;;17.10;95.00;;;;;;6262085;22;20014;-88
2021/09/19 10:53:53;;;;;;;10.10;6.78;;;17.10;95.20;;;;;;6312773;22;20006;-88
2021/09/19 10:56:24;;;;;;;7.50;6.25;;;17.20;95.00;;;;;;6312865;22;20225;-88
2021/09/19 10:58:54;;;;;;;9.65;5.90;;;17.10;94.50;;;;;;6311723;22;20010;-88
2021/09/19 11:02:03;;;;;;;6.47;5.53;;;17.20;94.30;;;;;;6278182;22;20014;-88
2021/09/19 11:04:40;;;;;;;6.28;4.70;;;17.30;94.10;;;;;;6333962;22;20053;-88
2021/09/19 11:07:06;;;;;;;7.10;5.10;;;17.30;94.30;;;;;;6262264;22;20078;-86
2021/09/19 11:09:39;;;;;;;8.00;4.85;;;17.30;93.80;;;;;;6260550;22;20018;-88
2021/09/19 11:15:25;;;;;;;6.65;5.20;;;17.30;94.00;;;;;;6338912;22;20017;-89
2021/09/19 11:17:54;;;;;;;6.57;5.22;;;17.30;92.30;;;;;;6286221;22;20086;-89
2021/09/19 11:20:25;;;;;;;6.15;4.93;;;17.30;93.40;;;;;;6285979;22;20010;-87
2021/09/19 11:23:16;;;;;;;10.02;5.38;;;17.40;93.60;;;;;;6312953;22;20006;-87
2021/09/19 11:25:42;;;;;;;9.77;5.05;;;17.40;93.70;;;;;;6312470;22;20530;-88
2021/09/19 11:28:11;;;;;;;7.07;4.57;;;17.40;93.60;;;;;;6286377;22;20487;-88
2021/09/19 11:30:48;;;;;;;8.57;5.18;;;17.30;92.80;;;;;;6312730;22;20014;-87
2021/09/19 11:33:18;;;;;;;6.72;4.88;;;17.30;93.00;;;;;;6312721;22;20014;-86
2021/09/19 11:35:44;;;;;;;10.55;4.82;;;17.30;92.90;;;;;;6311699;22;20343;-88
2021/09/19 11:38:10;;;;;;;7.65;5.10;;;17.30;92.80;;;;;;6313004;22;20018;-86
2021/09/19 11:40:38;;;;;;;7.00;4.80;;;17.30;92.40;;;;;;6261203;22;20014;-86
2021/09/19 11:43:07;;;;;;;7.28;4.75;;;17.30;92.40;;;;;;6312192;22;20014;-87
2021/09/19 11:45:44;;;;;;;7.65;5.22;;;17.40;91.90;;;;;;6314232;22;20014;-88
2021/09/19 11:48:17;;;;;;;7.82;5.50;;;17.40;92.00;;;;;;6262309;22;20018;-86
2021/09/19 11:50:52;;;;;;;8.32;4.97;;;17.50;91.90;;;;;;6288229;22;20010;-87
2021/09/19 11:53:22;;;;;;;8.95;5.35;;;17.50;92.60;;;;;;6284305;22;20012;-86
2021/09/19 11:55:48;;;;;;;7.97;5.15;;;17.60;93.40;;;;;;6287464;22;20095;-87
2021/09/19 11:58:22;;;;;;;10.05;4.85;;;17.60;92.40;;;;;;6288351;22;20089;-86
2021/09/19 12:00:59;;;;;;;7.43;4.90;;;17.60;92.20;;;;;;6312937;22;20021;-88
2021/09/19 12:03:35;;;;;;;6.72;4.88;;;17.50;92.10;;;;;;6313806;22;20431;-89
2021/09/19 12:06:03;;;;;;;6.32;4.68;;;17.50;92.30;;;;;;6313844;22;20458;-86
2021/09/19 12:08:35;;;;;;;6.57;4.35;;;17.60;92.40;;;;;;6273189;22;20015;-88
2021/09/19 12:11:25;;;;;;;6.55;4.75;;;17.70;92.10;;;;;;6249008;22;20090;-88
2021/09/19 12:13:53;;;;;;;6.13;4.38;;;17.70;91.80;;;;;;6228421;22;20007;-88
2021/09/19 12:16:30;;;;;;;7.75;4.60;;;17.70;91.00;;;;;;6255585;22;20051;-87
2021/09/19 12:18:58;;;;;;;6.10;4.22;;;17.70;91.00;;;;;;6221427;22;20046;-87
2021/09/19 12:21:35;;;;;;;4.68;3.38;;;17.70;92.10;;;;;;6223532;22;20050;-88
2021/09/19 12:24:04;;;;;;;6.63;4.10;;;17.70;91.80;;;;;;6225950;22;20076;-87
2021/09/19 12:26:33;;;;;;;5.63;3.95;;;17.70;91.70;;;;;;6222773;22;20511;-86
2021/09/19 12:29:11;;;;;;;7.30;4.30;;;17.70;91.70;;;;;;6222477;22;20011;-87
2021/09/19 12:31:47;;;;;;;11.25;4.25;;;17.60;91.40;;;;;;6247660;22;20101;-88
2021/09/19 12:34:22;;;;;;;6.72;4.13;;;17.70;91.90;;;;;;6247650;22;20019;-86
2021/09/19 12:36:51;;;;;;;6.50;4.28;;;17.70;92.00;;;;;;6273858;22;20054;-86
2021/09/19 12:39:34;;;;;;;8.05;4.18;;;17.60;91.60;;;;;;6223725;22;20019;-88
2021/09/19 12:42:04;;;;;;;6.80;3.97;;;17.50;91.70;;;;;;6248793;22;20397;-85
2021/09/19 12:44:47;;;;;;;7.75;4.30;;;17.50;91.50;;;;;;6248007;22;20047;-87
2021/09/19 12:47:13;;;;;;;7.07;4.35;;;17.50;91.50;;;;;;6311533;22;20021;-86
2021/09/19 12:49:44;;;;;;;8.48;4.80;;;17.50;91.90;;;;;;6260989;22;20015;-87
2021/09/19 12:52:13;;;;;;;6.70;4.30;;;17.50;91.70;;;;;;6312344;22;20045;-86
2021/09/19 12:54:57;;;;;;;6.47;4.22;;;17.50;91.80;;;;;;6310829;22;20010;-86
2021/09/19 12:57:35;;;;;;;7.57;4.40;;;17.50;92.30;;;;;;6271340;22;20348;-88
2021/09/19 13:00:07;;;;;;;7.28;4.10;;;17.60;92.60;;;;;;6259944;22;20347;-88
2021/09/19 13:02:33;;;;;;;9.15;4.40;;;17.50;91.90;;;;;;6285236;22;20010;-86
2021/09/19 13:04:59;;;;;;;8.88;4.53;;;17.60;92.80;;;;;;6260179;22;20014;-86
2021/09/19 13:07:25;;;;;;;5.78;4.28;;;17.60;92.40;;;;;;6285295;22;20014;-87
2021/09/19 13:09:51;;;;;;;6.97;4.47;;;17.70;92.80;;;;;;6285200;22;20014;-87
2021/09/19 13:12:20;;;;;;;8.27;4.45;;;17.80;92.50;;;;;;6311910;22;20007;-87
2021/09/19 13:14:58;;;;;;;7.47;4.43;;;18.00;92.60;;;;;;6261429;22;20447;-87
2021/09/19 13:17:36;;;;;;;4.93;4.38;;;18.10;92.30;;;;;;6292484;22;20056;-88
2021/09/19 13:20:09;;;;;;;7.63;4.57;;;18.40;92.00;;;;;;6295698;22;20044;-88
2021/09/19 13:22:35;;;;;;;;;;;18.50;90.80;;;;;;6305701;22;20025;-90
2021/09/19 13:25:00;;;;;;;7.90;4.40;;;18.60;87.80;;;;;;6311372;22;19941;-88
2021/09/19 13:27:33;;;;;;;8.13;4.60;;;18.50;91.30;;;;;;6312451;22;20021;-87
2021/09/19 13:30:03;;;;;;;9.20;4.80;;;18.40;90.60;;;;;;6311894;22;20041;-89
2021/09/19 13:32:29;;;;;;;6.50;4.50;;;18.20;89.80;;;;;;6337893;22;20018;-87
2021/09/19 13:34:55;;;;;;;5.80;4.65;;;18.10;90.10;;;;;;6288343;22;20006;-86
2021/09/19 13:37:34;;;;;;;8.48;4.63;;;18.00;90.60;;;;;;6288401;22;20020;-86
2021/09/19 13:40:00;;;;;;;5.55;4.00;;;17.90;90.80;;;;;;6289202;22;20500;-87
2021/09/19 13:42:37;;;;;;;5.20;3.60;;;17.80;91.30;;;;;;6261118;22;20019;-88
2021/09/19 13:45:04;;;;;;;4.75;3.50;;;17.90;92.00;;;;;;6312358;22;20022;-86
2021/09/19 13:47:33;;;;;;;6.07;4.10;;;17.90;91.30;;;;;;6315751;22;20331;-86